Time;durP1;ratioP1;P1;durP2;ratioP2;P2;SDS_P1;SDS_P2;PMS_P1;PMS_P2;Temp;Humidity;BMP_temperature;BMP_pressure;BME280_temperature;BME280_humidity;BME280_pressure;Samples;Min_cycle;Max_cycle;Signal;HPM_P1;HPM_P2
2023/05/11 00:02:20;;;;;;;17.07;12.83;;;12.30;99.90;;;;;;5066697;28;20206;-54
2023/05/11 00:04:49;;;;;;;14.83;11.40;;;12.30;99.90;;;;;;5082696;28;20202;-54
2023/05/11 00:07:15;;;;;;;17.00;12.27;;;12.30;99.90;;;;;;5077334;28;20233;-50
2023/05/11 00:09:43;;;;;;;14.53;9.80;;;12.30;99.90;;;;;;5077080;28;20217;-55
2023/05/11 00:12:11;;;;;;;17.07;10.87;;;12.30;99.90;;;;;;5074335;28;20198;-53
2023/05/11 00:14:38;;;;;;;14.97;10.23;;;12.30;99.90;;;;;;5073899;28;20280;-56
2023/05/11 00:17:05;;;;;;;11.63;8.70;;;12.20;99.90;;;;;;5068762;28;20745;-54
2023/05/11 00:19:32;;;;;;;12.10;9.63;;;12.20;99.90;;;;;;5078301;28;20206;-53
2023/05/11 00:22:00;;;;;;;12.77;9.73;;;12.20;99.90;;;;;;5082481;28;20186;-56
2023/05/11 00:24:27;;;;;;;10.50;8.60;;;12.20;99.90;;;;;;5067950;28;20198;-51
2023/05/11 00:26:54;;;;;;;10.90;8.63;;;12.20;99.90;;;;;;5074672;28;20200;-57
2023/05/11 00:29:22;;;;;;;10.37;9.10;;;12.20;99.90;;;;;;5079856;28;20209;-56
2023/05/11 00:31:49;;;;;;;11.33;9.23;;;12.30;99.90;;;;;;5070685;28;20300;-55
2023/05/11 00:34:16;;;;;;;10.70;8.70;;;12.20;99.90;;;;;;5082533;28;20202;-55
2023/05/11 00:36:43;;;;;;;10.23;8.13;;;12.20;99.90;;;;;;5083625;28;20197;-56
2023/05/11 00:39:12;;;;;;;9.90;7.73;;;12.10;99.90;;;;;;5070444;28;20790;-51
2023/05/11 00:41:39;;;;;;;9.30;7.70;;;12.10;99.90;;;;;;5078493;28;20204;-53
2023/05/11 00:44:07;;;;;;;8.67;7.13;;;12.10;99.90;;;;;;5085872;28;20591;-54
2023/05/11 00:46:34;;;;;;;8.77;7.20;;;12.00;99.90;;;;;;5052356;28;20203;-53
2023/05/11 00:49:01;;;;;;;8.73;7.47;;;12.00;99.90;;;;;;5084213;28;20737;-50
2023/05/11 00:51:28;;;;;;;8.13;7.10;;;12.00;99.90;;;;;;5079829;28;20213;-52
2023/05/11 00:53:56;;;;;;;10.50;7.83;;;12.00;99.90;;;;;;5069122;28;20206;-51
2023/05/11 00:56:24;;;;;;;11.00;8.37;;;11.90;99.90;;;;;;5080422;28;20205;-54
2023/05/11 00:58:53;;;;;;;10.67;8.90;;;11.90;99.90;;;;;;5084309;28;20242;-55
2023/05/11 01:01:20;;;;;;;10.97;8.53;;;11.90;99.90;;;;;;5081695;28;20816;-53
2023/05/11 01:03:47;;;;;;;12.00;7.73;;;11.90;99.90;;;;;;5069259;28;20209;-54
2023/05/11 01:06:18;;;;;;;11.33;8.17;;;11.90;99.90;;;;;;5076193;28;20205;-51
2023/05/11 01:08:50;;;;;;;13.33;9.07;;;11.90;99.90;;;;;;5070090;28;20221;-55
2023/05/11 01:11:47;;;;;;;12.27;8.97;;;11.90;99.90;;;;;;5077180;28;20197;-54
2023/05/11 01:14:20;;;;;;;11.77;8.93;;;11.90;99.90;;;;;;5083542;28;20271;-53
2023/05/11 01:16:52;;;;;;;11.17;9.13;;;11.90;99.90;;;;;;5079353;28;20195;-53
2023/05/11 01:19:28;;;;;;;10.80;8.17;;;11.90;99.90;;;;;;5051632;28;20963;-51
2023/05/11 01:21:58;;;;;;;12.60;8.80;;;11.90;99.90;;;;;;5069761;28;20209;-53
2023/05/11 01:24:44;;;;;;;10.57;8.17;;;11.90;99.90;;;;;;5075271;28;20225;-53
2023/05/11 01:27:49;;;;;;;13.13;8.83;;;11.90;99.90;;;;;;5080065;28;20294;-56
2023/05/11 01:30:27;;;;;;;12.63;8.73;;;11.90;99.90;;;;;;5081442;28;20890;-55
2023/05/11 01:32:58;;;;;;;14.73;9.53;;;11.90;99.90;;;;;;5081115;28;20229;-55
2023/05/11 01:35:26;;;;;;;14.27;9.87;;;11.90;99.90;;;;;;5052069;28;20973;-53
2023/05/11 01:37:57;;;;;;;12.60;8.80;;;11.90;99.90;;;;;;5083093;28;20205;-55
2023/05/11 01:40:28;;;;;;;13.47;9.27;;;11.90;99.90;;;;;;5082543;28;20244;-54
2023/05/11 01:43:01;;;;;;;11.40;8.90;;;11.90;99.90;;;;;;5084152;28;20276;-53
2023/05/11 01:45:32;;;;;;;12.57;8.83;;;11.90;99.90;;;;;;5083216;28;20186;-53
2023/05/11 01:48:03;;;;;;;13.13;9.40;;;12.00;99.90;;;;;;5076692;28;20186;-52
2023/05/11 01:50:32;;;;;;;12.23;9.03;;;11.90;99.90;;;;;;5061974;28;20225;-53
2023/05/11 01:53:01;;;;;;;12.93;9.30;;;11.90;99.90;;;;;;5081055;28;20190;-51
2023/05/11 01:55:32;;;;;;;12.93;9.10;;;11.90;99.90;;;;;;5081808;28;20206;-53
2023/05/11 01:58:00;;;;;;;13.03;9.30;;;12.00;99.90;;;;;;5067584;28;20206;-55
2023/05/11 02:00:27;;;;;;;11.87;9.17;;;12.00;99.90;;;;;;5079702;28;20202;-54
2023/05/11 02:02:58;;;;;;;11.93;9.13;;;11.90;99.90;;;;;;5075109;28;20202;-51
2023/05/11 02:05:28;;;;;;;12.30;9.50;;;11.90;99.90;;;;;;5064694;28;20206;-54
2023/05/11 02:07:57;;;;;;;13.07;9.43;;;11.90;99.90;;;;;;5076829;28;20686;-51
2023/05/11 02:10:26;;;;;;;11.20;8.90;;;11.90;99.90;;;;;;5078303;28;20222;-50
2023/05/11 02:12:55;;;;;;;11.90;9.03;;;11.90;99.90;;;;;;5077132;28;20202;-54
2023/05/11 02:15:25;;;;;;;12.50;8.87;;;11.90;99.90;;;;;;5075413;28;20197;-53
2023/05/11 02:17:55;;;;;;;10.73;8.00;;;11.90;99.90;;;;;;5075165;28;20202;-54
2023/05/11 02:20:25;;;;;;;11.73;8.60;;;11.90;99.90;;;;;;5062815;28;20319;-50
2023/05/11 02:22:53;;;;;;;12.63;8.97;;;11.90;99.90;;;;;;5082947;28;20649;-55
2023/05/11 02:25:22;;;;;;;13.00;9.07;;;11.80;99.90;;;;;;5074914;28;20206;-54
2023/05/11 02:27:49;;;;;;;13.37;9.20;;;11.80;99.90;;;;;;5083414;28;20194;-53
2023/05/11 02:30:16;;;;;;;12.27;9.20;;;11.80;99.90;;;;;;5063250;28;20971;-53
2023/05/11 02:32:51;;;;;;;11.80;8.80;;;11.80;99.90;;;;;;5078243;28;20192;-56
2023/05/11 02:35:23;;;;;;;13.43;9.40;;;11.80;99.90;;;;;;5079455;28;20873;-52
2023/05/11 02:37:55;;;;;;;14.27;9.03;;;11.70;99.90;;;;;;5064614;28;20567;-52
2023/05/11 02:40:47;;;;;;;11.50;8.80;;;11.70;99.90;;;;;;5083286;28;20212;-52
2023/05/11 02:43:22;;;;;;;12.60;8.40;;;11.70;99.90;;;;;;5074917;28;20893;-55
2023/05/11 02:46:01;;;;;;;12.53;8.93;;;11.70;99.90;;;;;;5065966;28;20233;-54
2023/05/11 02:48:30;;;;;;;12.73;8.60;;;11.70;99.90;;;;;;5080164;28;20186;-54
2023/05/11 02:51:02;;;;;;;12.40;9.07;;;11.70;99.90;;;;;;5072359;28;20217;-54
2023/05/11 02:53:36;;;;;;;10.27;7.83;;;11.70;99.90;;;;;;5073615;28;20221;-51
2023/05/11 02:56:05;;;;;;;11.57;8.47;;;11.70;99.90;;;;;;5073668;28;20197;-53
2023/05/11 02:58:34;;;;;;;11.90;8.50;;;11.70;99.90;;;;;;5083330;28;20221;-52
2023/05/11 03:01:13;;;;;;;11.30;7.80;;;11.60;99.90;;;;;;5067687;28;20198;-54
2023/05/11 03:03:41;;;;;;;11.07;7.90;;;11.60;99.90;;;;;;5083307;28;20227;-52
2023/05/11 03:06:09;;;;;;;11.80;7.87;;;11.60;99.90;;;;;;5078935;28;20288;-55
2023/05/11 03:08:36;;;;;;;9.90;7.47;;;11.60;99.90;;;;;;5065196;28;20218;-56
2023/05/11 03:11:05;;;;;;;10.47;7.13;;;11.60;99.90;;;;;;5069853;28;20206;-54
2023/05/11 03:13:33;;;;;;;9.50;7.53;;;11.50;99.90;;;;;;5075438;28;20206;-56
2023/05/11 03:16:03;;;;;;;10.57;7.30;;;11.50;99.90;;;;;;5071257;28;20281;-54
2023/05/11 03:18:33;;;;;;;12.33;8.10;;;11.50;99.90;;;;;;5079552;28;20237;-53
2023/05/11 03:21:01;;;;;;;10.33;7.93;;;11.50;99.90;;;;;;5081957;28;20273;-51
2023/05/11 03:23:30;;;;;;;11.97;8.50;;;11.50;99.90;;;;;;5063687;28;20194;-56
2023/05/11 03:25:58;;;;;;;10.20;7.50;;;11.50;99.90;;;;;;5072723;28;20193;-53
2023/05/11 03:28:26;;;;;;;11.90;8.27;;;11.50;99.90;;;;;;5073019;28;20209;-55
2023/05/11 03:31:00;;;;;;;10.93;8.33;;;11.50;99.90;;;;;;5075469;28;20255;-53
2023/05/11 03:33:27;;;;;;;12.13;7.97;;;11.50;99.90;;;;;;5078270;28;20239;-54
2023/05/11 03:35:56;;;;;;;13.70;8.17;;;11.50;99.90;;;;;;5081152;28;20563;-56
2023/05/11 03:38:27;;;;;;;13.50;8.43;;;11.50;99.90;;;;;;5057900;28;22889;-54
2023/05/11 03:40:57;;;;;;;11.53;8.57;;;11.50;99.90;;;;;;5073060;28;20247;-52
2023/05/11 03:43:28;;;;;;;14.63;10.07;;;11.50;99.90;;;;;;5077230;28;20239;-57
2023/05/11 03:45:57;;;;;;;14.77;9.90;;;11.50;99.90;;;;;;5085884;28;20200;-53
2023/05/11 03:48:25;;;;;;;14.27;9.77;;;11.50;99.90;;;;;;5072713;28;20205;-57
2023/05/11 03:50:52;;;;;;;14.97;9.70;;;11.50;99.90;;;;;;5082192;28;20292;-53
2023/05/11 03:53:20;;;;;;;13.93;9.53;;;11.50;99.90;;;;;;5054529;28;20194;-52
2023/05/11 03:55:48;;;;;;;15.30;10.70;;;11.50;99.90;;;;;;5077650;28;20198;-54
2023/05/11 03:58:17;;;;;;;17.97;10.77;;;11.50;99.90;;;;;;5062692;28;20696;-50
2023/05/11 04:00:44;;;;;;;15.13;10.10;;;11.40;99.90;;;;;;5072589;28;20213;-54
2023/05/11 04:03:12;;;;;;;20.00;10.60;;;11.40;99.90;;;;;;5071044;28;20301;-57
2023/05/11 04:05:40;;;;;;;17.73;11.17;;;11.40;99.90;;;;;;5069254;28;20202;-54
2023/05/11 04:08:10;;;;;;;17.60;10.00;;;11.40;99.90;;;;;;5072532;28;20195;-52
2023/05/11 04:10:38;;;;;;;16.57;10.27;;;11.40;99.90;;;;;;5067652;28;20225;-54
2023/05/11 04:13:04;;;;;;;11.33;8.67;;;11.40;99.90;;;;;;5076048;28;20881;-54
2023/05/11 04:15:34;;;;;;;12.90;8.57;;;11.30;99.90;;;;;;5078994;28;20210;-50
2023/05/11 04:18:01;;;;;;;15.20;9.57;;;11.30;99.90;;;;;;5081329;28;20329;-53
2023/05/11 04:20:28;;;;;;;15.10;9.17;;;11.30;99.90;;;;;;5070764;28;20225;-55
2023/05/11 04:22:55;;;;;;;16.07;9.77;;;11.30;99.90;;;;;;5076794;28;20265;-52
2023/05/11 04:25:21;;;;;;;14.40;9.13;;;11.30;99.90;;;;;;5067183;28;20213;-55
2023/05/11 04:27:48;;;;;;;14.90;9.53;;;11.30;99.90;;;;;;5077625;28;20289;-52
2023/05/11 04:30:16;;;;;;;16.73;10.13;;;11.30;99.90;;;;;;5078487;28;20221;-52
2023/05/11 04:32:44;;;;;;;15.67;9.13;;;11.30;99.90;;;;;;5081539;28;20605;-54
2023/05/11 04:35:11;;;;;;;15.33;9.77;;;11.30;99.90;;;;;;5060896;28;20210;-55
2023/05/11 04:37:39;;;;;;;17.57;9.93;;;11.30;99.90;;;;;;5079831;28;20198;-52
2023/05/11 04:40:09;;;;;;;21.90;10.80;;;11.40;99.90;;;;;;5064206;28;22256;-52
2023/05/11 04:42:41;;;;;;;19.70;10.70;;;11.40;99.90;;;;;;5080964;28;20197;-51
2023/05/11 04:45:12;;;;;;;17.57;10.53;;;11.40;99.90;;;;;;5071891;28;22960;-55
2023/05/11 04:47:39;;;;;;;17.97;10.37;;;11.40;99.90;;;;;;5079770;28;20186;-56
2023/05/11 04:50:09;;;;;;;17.67;10.33;;;11.50;99.90;;;;;;5053641;28;20336;-56
2023/05/11 04:52:37;;;;;;;21.37;10.70;;;11.50;99.90;;;;;;5082090;28;20190;-57
2023/05/11 04:55:04;;;;;;;17.43;9.97;;;11.60;99.90;;;;;;5057123;28;20274;-53
2023/05/11 04:57:31;;;;;;;21.03;11.87;;;11.70;99.90;;;;;;5082844;28;20190;-53
2023/05/11 04:59:58;;;;;;;21.77;11.43;;;11.60;99.90;;;;;;5068482;28;20222;-54
2023/05/11 05:02:25;;;;;;;19.77;11.53;;;11.60;99.90;;;;;;5056060;28;20822;-52
2023/05/11 05:04:52;;;;;;;20.27;10.73;;;11.70;99.90;;;;;;5069143;28;20222;-55
2023/05/11 05:07:21;;;;;;;20.50;10.93;;;11.70;99.90;;;;;;5059338;28;20255;-52
2023/05/11 05:09:48;;;;;;;24.17;11.60;;;11.70;99.90;;;;;;5082153;28;20218;-57
2023/05/11 05:12:15;;;;;;;19.43;10.67;;;11.70;99.90;;;;;;5057113;28;20206;-52
2023/05/11 05:14:42;;;;;;;25.77;12.10;;;11.80;99.90;;;;;;5077497;28;20220;-51
2023/05/11 05:17:09;;;;;;;20.80;11.20;;;11.90;99.90;;;;;;5068771;28;20565;-56
2023/05/11 05:19:37;;;;;;;24.03;11.63;;;11.90;99.90;;;;;;5073591;28;20591;-54
2023/05/11 05:22:04;;;;;;;27.63;12.43;;;12.00;99.90;;;;;;5068387;28;20711;-54
2023/05/11 05:24:33;;;;;;;26.50;12.67;;;12.10;99.90;;;;;;5069308;28;20226;-57
2023/05/11 05:27:01;;;;;;;25.43;12.80;;;12.10;99.90;;;;;;5063359;28;20213;-55
2023/05/11 05:29:29;;;;;;;28.97;13.33;;;12.20;99.90;;;;;;5073657;28;20214;-54
2023/05/11 05:31:58;;;;;;;25.00;12.83;;;12.10;99.90;;;;;;5055895;28;20565;-56
2023/05/11 05:34:26;;;;;;;24.27;12.27;;;12.10;99.90;;;;;;5077340;28;20294;-52
2023/05/11 05:36:53;;;;;;;27.70;13.50;;;12.20;99.90;;;;;;5065363;28;20194;-56
2023/05/11 05:39:20;;;;;;;26.03;12.37;;;12.10;99.90;;;;;;5076199;28;20224;-57
2023/05/11 05:41:48;;;;;;;26.43;12.73;;;12.20;99.90;;;;;;5075220;28;20190;-53
2023/05/11 05:44:16;;;;;;;26.57;13.70;;;12.20;99.90;;;;;;5060372;28;20269;-58
2023/05/11 05:46:43;;;;;;;25.40;12.00;;;12.10;99.90;;;;;;5076889;28;20274;-55
2023/05/11 05:49:10;;;;;;;28.20;12.17;;;12.20;99.90;;;;;;5072852;28;20230;-57
2023/05/11 05:51:38;;;;;;;24.33;12.03;;;12.30;99.90;;;;;;5075482;28;20206;-56
2023/05/11 05:54:05;;;;;;;22.10;11.87;;;12.20;99.90;;;;;;5055063;28;20270;-53
2023/05/11 05:56:33;;;;;;;23.57;12.50;;;12.30;99.90;;;;;;5069599;28;20209;-54
2023/05/11 05:59:02;;;;;;;25.83;12.63;;;12.30;99.90;;;;;;5052031;28;20218;-55
2023/05/11 06:01:29;;;;;;;26.30;12.43;;;12.40;99.90;;;;;;5077123;28;20202;-57
2023/05/11 06:03:56;;;;;;;29.17;13.80;;;12.40;99.90;;;;;;5071593;28;20676;-55
2023/05/11 06:06:24;;;;;;;24.57;12.57;;;12.30;99.90;;;;;;5080190;28;20975;-55
2023/05/11 06:08:52;;;;;;;23.97;12.43;;;12.40;99.90;;;;;;5068825;28;20226;-55
2023/05/11 06:11:41;;;;;;;26.17;13.37;;;12.40;99.90;;;;;;5068108;28;20228;-54
2023/05/11 06:14:10;;;;;;;26.53;12.80;;;12.40;99.90;;;;;;5056287;28;20198;-56
2023/05/11 06:16:38;;;;;;;26.17;12.93;;;12.40;99.90;;;;;;5070023;28;20243;-55
2023/05/11 06:19:04;;;;;;;25.23;11.97;;;12.40;99.90;;;;;;5069220;28;20246;-51
2023/05/11 06:21:31;;;;;;;26.80;13.63;;;12.50;99.90;;;;;;5073199;28;20239;-52
2023/05/11 06:23:58;;;;;;;27.47;13.30;;;12.50;99.90;;;;;;5063471;28;20206;-54
2023/05/11 06:26:28;;;;;;;27.27;13.37;;;12.50;99.90;;;;;;5071495;28;20213;-52
2023/05/11 06:28:56;;;;;;;25.97;13.80;;;12.50;99.90;;;;;;5061846;28;20279;-53
2023/05/11 06:31:26;;;;;;;27.83;13.47;;;12.60;99.90;;;;;;5081562;28;20632;-54
2023/05/11 06:33:53;;;;;;;26.00;13.90;;;12.60;99.90;;;;;;5072543;28;20267;-55
2023/05/11 06:36:41;;;;;;;25.10;13.30;;;12.60;99.90;;;;;;5079424;28;20205;-54
2023/05/11 06:39:10;;;;;;;28.33;14.03;;;12.70;99.90;;;;;;5065222;28;20222;-54
2023/05/11 06:41:58;;;;;;;25.97;13.57;;;12.60;99.90;;;;;;5079397;28;20901;-56
2023/05/11 06:44:28;;;;;;;29.50;14.37;;;12.50;99.90;;;;;;5074566;28;20209;-53
2023/05/11 06:46:59;;;;;;;25.77;14.27;;;12.50;99.90;;;;;;5073740;28;20391;-56
2023/05/11 06:49:27;;;;;;;29.57;14.13;;;12.50;99.90;;;;;;5074980;28;20232;-55
2023/05/11 06:51:54;;;;;;;27.53;13.00;;;12.60;99.90;;;;;;5075872;28;20204;-57
2023/05/11 06:54:22;;;;;;;26.20;13.23;;;12.60;99.90;;;;;;5063577;28;20229;-51
2023/05/11 06:56:48;;;;;;;24.70;12.93;;;12.60;99.90;;;;;;5078555;28;20185;-57
2023/05/11 06:59:16;;;;;;;28.40;13.43;;;12.60;99.90;;;;;;5083100;28;20213;-52
2023/05/11 07:01:42;;;;;;;26.50;12.70;;;12.70;99.90;;;;;;5063142;28;20710;-55
2023/05/11 07:04:12;;;;;;;24.10;12.20;;;12.80;99.90;;;;;;5082036;28;20667;-56
2023/05/11 07:07:01;;;;;;;19.97;11.30;;;12.80;99.90;;;;;;5073085;28;20217;-55
2023/05/11 07:09:28;;;;;;;25.30;12.43;;;12.80;99.90;;;;;;5070007;28;20256;-49
2023/05/11 07:11:56;;;;;;;26.90;12.20;;;12.90;99.90;;;;;;5075118;28;20222;-57
2023/05/11 07:14:25;;;;;;;24.00;12.00;;;12.90;99.90;;;;;;5082501;28;20193;-54
2023/05/11 07:16:56;;;;;;;22.97;12.67;;;12.90;99.90;;;;;;5065072;28;20193;-57
2023/05/11 07:19:24;;;;;;;20.87;12.23;;;12.90;99.90;;;;;;5079164;28;20287;-56
2023/05/11 07:22:11;;;;;;;27.73;13.17;;;12.90;99.90;;;;;;5073206;28;20196;-54
2023/05/11 07:24:39;;;;;;;23.93;12.37;;;13.00;99.90;;;;;;5069398;28;20243;-51
2023/05/11 07:27:27;;;;;;;25.00;12.73;;;13.10;99.90;;;;;;5081165;28;20274;-53
2023/05/11 07:29:54;;;;;;;25.63;12.37;;;13.10;99.90;;;;;;5080599;28;20472;-54
2023/05/11 07:32:21;;;;;;;30.27;12.93;;;13.20;99.90;;;;;;5063506;28;20262;-55
2023/05/11 07:34:49;;;;;;;29.10;12.90;;;13.20;99.90;;;;;;5071031;28;20190;-54
2023/05/11 07:37:17;;;;;;;24.20;12.43;;;13.20;99.90;;;;;;5073064;28;20263;-56
2023/05/11 07:39:43;;;;;;;26.17;11.83;;;13.20;99.90;;;;;;5082335;28;20292;-56
2023/05/11 07:42:11;;;;;;;21.37;11.07;;;13.30;99.90;;;;;;5076829;28;20197;-55
2023/05/11 07:44:38;;;;;;;23.50;11.47;;;13.30;99.90;;;;;;5083543;28;20193;-55
2023/05/11 07:47:06;;;;;;;23.53;12.47;;;13.40;99.90;;;;;;5066235;28;20720;-55
2023/05/11 07:49:33;;;;;;;22.13;10.63;;;13.40;99.90;;;;;;5076298;28;20213;-53
2023/05/11 07:52:02;;;;;;;23.27;11.50;;;13.40;99.90;;;;;;5079868;28;20239;-56
2023/05/11 07:54:29;;;;;;;21.03;10.80;;;13.40;99.90;;;;;;5085851;28;20863;-53
2023/05/11 07:56:56;;;;;;;23.73;11.70;;;13.40;99.90;;;;;;5074443;28;20189;-57
2023/05/11 07:59:24;;;;;;;21.70;10.63;;;13.50;99.90;;;;;;5086051;28;20218;-53
2023/05/11 08:01:51;;;;;;;19.90;10.90;;;13.50;99.90;;;;;;5060990;28;20210;-54
2023/05/11 08:04:18;;;;;;;17.37;10.57;;;13.60;99.90;;;;;;5081238;28;20198;-57
2023/05/11 08:06:45;;;;;;;21.13;9.93;;;13.60;99.90;;;;;;5077233;28;20295;-57
2023/05/11 08:09:13;;;;;;;19.80;10.20;;;13.50;99.90;;;;;;5086890;28;20277;-51
2023/05/11 08:11:40;;;;;;;22.57;10.53;;;13.60;99.90;;;;;;5069562;28;20209;-53
2023/05/11 08:14:07;;;;;;;19.00;10.17;;;13.60;99.90;;;;;;5081001;28;20197;-56
2023/05/11 08:16:36;;;;;;;20.27;10.20;;;13.60;99.90;;;;;;5062030;28;20217;-54
2023/05/11 08:19:02;;;;;;;17.80;9.83;;;13.70;99.90;;;;;;5079759;28;20237;-57
2023/05/11 08:21:31;;;;;;;18.40;10.40;;;13.70;99.90;;;;;;5082348;28;20218;-55
2023/05/11 08:23:58;;;;;;;15.53;9.80;;;13.70;99.90;;;;;;5079502;28;20205;-54
2023/05/11 08:26:27;;;;;;;21.73;11.43;;;13.70;99.90;;;;;;5085591;28;20212;-52
2023/05/11 08:28:53;;;;;;;17.93;10.43;;;13.70;99.90;;;;;;5067123;28;20206;-54
2023/05/11 08:31:20;;;;;;;21.13;10.13;;;13.70;99.90;;;;;;5077539;28;20288;-54
2023/05/11 08:33:47;;;;;;;17.97;10.90;;;13.80;99.90;;;;;;5064531;28;20281;-56
2023/05/11 08:36:15;;;;;;;25.70;12.10;;;13.80;99.90;;;;;;5086063;28;20196;-54
2023/05/11 08:38:42;;;;;;;18.77;10.60;;;13.80;99.90;;;;;;5075670;28;21059;-56
2023/05/11 08:41:11;;;;;;;21.90;11.17;;;13.90;99.90;;;;;;5086192;28;20201;-57
2023/05/11 08:43:40;;;;;;;25.77;11.77;;;13.90;99.90;;;;;;5065301;28;20200;-48
2023/05/11 08:46:08;;;;;;;16.80;10.10;;;13.90;99.90;;;;;;5077040;28;20193;-51
2023/05/11 08:48:35;;;;;;;18.70;10.40;;;13.90;99.90;;;;;;5061614;28;20309;-52
2023/05/11 08:51:03;;;;;;;22.40;12.30;;;13.90;99.90;;;;;;5084593;28;20240;-55
2023/05/11 08:53:30;;;;;;;19.03;10.80;;;14.00;99.90;;;;;;5082073;28;20684;-53
2023/05/11 08:55:59;;;;;;;21.50;11.17;;;14.00;99.90;;;;;;5078363;28;20201;-55
2023/05/11 08:58:27;;;;;;;23.73;11.53;;;14.00;99.90;;;;;;5069389;28;20202;-58
2023/05/11 09:00:55;;;;;;;21.30;12.13;;;13.90;99.90;;;;;;5073454;28;20217;-49
2023/05/11 09:03:23;;;;;;;22.93;12.23;;;13.90;99.90;;;;;;5054978;28;20209;-47
2023/05/11 09:05:49;;;;;;;20.77;11.90;;;13.90;99.90;;;;;;5078792;28;20247;-50
2023/05/11 09:08:18;;;;;;;19.83;12.00;;;13.80;99.90;;;;;;5073210;28;20847;-49
2023/05/11 09:10:45;;;;;;;20.50;11.57;;;13.90;99.90;;;;;;5072416;28;20217;-50
2023/05/11 09:13:13;;;;;;;22.53;12.33;;;14.00;99.90;;;;;;5075597;28;20216;-52
2023/05/11 09:15:40;;;;;;;21.27;11.60;;;14.00;99.90;;;;;;5073178;28;20255;-48
2023/05/11 09:18:08;;;;;;;19.87;11.97;;;14.00;99.90;;;;;;5065970;28;20626;-58
2023/05/11 09:20:35;;;;;;;21.77;12.33;;;14.00;99.90;;;;;;5080351;28;20277;-50
2023/05/11 09:23:02;;;;;;;22.03;11.67;;;14.00;99.90;;;;;;5079003;28;20243;-56
2023/05/11 09:25:33;;;;;;;22.37;12.67;;;13.90;99.90;;;;;;5065833;28;20297;-53
2023/05/11 09:28:00;;;;;;;23.87;12.23;;;13.90;99.90;;;;;;5072891;28;20539;-52
2023/05/11 09:30:27;;;;;;;22.93;11.50;;;13.90;99.90;;;;;;5067757;28;20760;-51
2023/05/11 09:32:55;;;;;;;19.73;11.17;;;13.90;99.90;;;;;;5064870;28;20210;-55
2023/05/11 09:35:25;;;;;;;25.03;13.23;;;13.90;99.90;;;;;;5064012;28;20224;-54
2023/05/11 09:37:59;;;;;;;18.80;10.77;;;13.90;99.90;;;;;;5070726;28;20901;-52
2023/05/11 09:40:26;;;;;;;19.03;10.83;;;13.90;99.90;;;;;;5065939;28;20221;-55
2023/05/11 09:42:54;;;;;;;20.80;10.80;;;13.90;99.90;;;;;;5071962;28;20208;-49
2023/05/11 09:45:37;;;;;;;16.30;9.83;;;13.90;99.90;;;;;;5065087;28;20212;-50
2023/05/11 09:48:05;;;;;;;20.00;10.13;;;13.90;99.90;;;;;;5067665;28;20197;-48
2023/05/11 09:50:34;;;;;;;19.53;10.07;;;13.80;99.90;;;;;;5053070;28;20210;-55
2023/05/11 09:53:01;;;;;;;16.87;10.10;;;13.90;99.90;;;;;;5068398;28;20229;-49
2023/05/11 09:55:28;;;;;;;17.37;9.07;;;13.90;99.90;;;;;;5071157;28;20656;-50
2023/05/11 09:57:57;;;;;;;17.70;9.10;;;13.90;99.90;;;;;;5067310;28;20355;-51
2023/05/11 10:00:25;;;;;;;19.80;9.87;;;13.90;99.90;;;;;;5066922;28;20237;-51
2023/05/11 10:03:02;;;;;;;18.70;9.20;;;14.00;99.90;;;;;;5066130;28;20217;-52
2023/05/11 10:05:31;;;;;;;16.03;8.97;;;14.00;99.90;;;;;;5057629;28;20207;-54
2023/05/11 10:08:01;;;;;;;15.33;9.87;;;14.00;99.90;;;;;;5073261;28;20197;-58
2023/05/11 10:10:30;;;;;;;13.73;8.63;;;14.00;99.90;;;;;;5082645;28;20292;-48
2023/05/11 10:12:59;;;;;;;15.53;9.57;;;14.10;99.90;;;;;;5075271;28;20216;-54
2023/05/11 10:15:27;;;;;;;13.07;8.80;;;14.10;99.90;;;;;;5070335;28;20203;-52
2023/05/11 10:17:55;;;;;;;14.80;9.07;;;14.20;99.90;;;;;;5083237;28;20226;-54
2023/05/11 10:20:23;;;;;;;13.33;8.30;;;14.20;99.90;;;;;;5073729;28;20222;-52
2023/05/11 10:22:52;;;;;;;14.37;8.00;;;14.10;99.90;;;;;;5060725;28;20221;-49
2023/05/11 10:25:22;;;;;;;15.17;8.93;;;14.10;99.90;;;;;;5080680;28;20270;-47
2023/05/11 10:27:50;;;;;;;13.70;8.57;;;14.20;99.90;;;;;;5078049;28;20217;-45
2023/05/11 10:30:18;;;;;;;11.37;7.67;;;14.20;99.90;;;;;;5073610;28;20271;-46
2023/05/11 10:32:46;;;;;;;12.70;7.60;;;14.20;99.90;;;;;;5069581;28;20911;-51
2023/05/11 10:35:13;;;;;;;11.37;7.87;;;14.20;99.90;;;;;;5072221;28;20190;-50
2023/05/11 10:37:41;;;;;;;10.57;6.93;;;14.20;99.90;;;;;;5063777;28;20296;-55
2023/05/11 10:40:10;;;;;;;15.13;8.57;;;14.30;99.90;;;;;;5080096;28;20217;-57
2023/05/11 10:43:13;;;;;;;14.40;8.40;;;14.30;99.90;;;;;;5078169;28;20194;-50
2023/05/11 10:45:49;;;;;;;12.10;8.10;;;14.30;99.90;;;;;;5079170;28;20258;-45
2023/05/11 10:48:36;;;;;;;10.33;6.87;;;14.30;99.90;;;;;;5060166;28;20240;-56
2023/05/11 10:51:46;;;;;;;9.33;6.77;;;14.30;99.90;;;;;;5065968;28;20733;-57
2023/05/11 10:54:29;;;;;;;10.20;7.03;;;14.40;99.90;;;;;;5076922;28;20755;-51
2023/05/11 10:57:20;;;;;;;10.17;7.47;;;14.40;99.90;;;;;;5079775;28;20201;-57
2023/05/11 11:00:08;;;;;;;8.83;6.73;;;14.40;99.90;;;;;;5070913;28;20213;-52
2023/05/11 11:02:36;;;;;;;10.23;6.70;;;14.50;99.90;;;;;;5062482;28;20346;-52
2023/05/11 11:05:09;;;;;;;10.73;6.63;;;14.40;99.90;;;;;;5077303;28;20190;-57
2023/05/11 11:07:58;;;;;;;9.43;6.47;;;14.50;99.90;;;;;;5064498;28;20210;-55
2023/05/11 11:10:33;;;;;;;12.27;7.07;;;14.60;99.90;;;;;;5079232;28;20735;-49
2023/05/11 11:13:05;;;;;;;10.13;7.07;;;14.70;99.90;;;;;;5072189;28;20221;-56
2023/05/11 11:16:11;;;;;;;8.87;6.50;;;14.70;99.90;;;;;;5076220;28;20186;-51
2023/05/11 11:18:38;;;;;;;8.77;6.93;;;14.80;99.90;;;;;;5059837;28;20270;-47
2023/05/11 11:21:05;;;;;;;6.33;5.57;;;14.70;99.90;;;;;;5067601;28;20649;-58
2023/05/11 11:23:44;;;;;;;8.43;6.40;;;14.80;99.90;;;;;;5079511;28;20198;-54
2023/05/11 11:26:14;;;;;;;8.00;5.60;;;14.90;99.90;;;;;;5079271;28;20193;-49
2023/05/11 11:29:09;;;;;;;8.30;6.17;;;14.90;99.90;;;;;;5073036;28;20210;-55
2023/05/11 11:31:39;;;;;;;9.37;6.07;;;15.00;99.90;;;;;;5071810;28;20277;-54
2023/05/11 11:34:32;;;;;;;10.03;6.70;;;15.00;99.90;;;;;;5069318;28;20263;-57
2023/05/11 11:37:09;;;;;;;7.93;6.07;;;15.00;99.90;;;;;;5072764;28;20293;-58
2023/05/11 11:39:48;;;;;;;9.20;6.67;;;15.10;99.90;;;;;;5075220;28;20220;-50
2023/05/11 11:42:17;;;;;;;7.50;6.47;;;15.20;99.90;;;;;;5076408;28;20858;-53
2023/05/11 11:44:45;;;;;;;9.60;6.83;;;15.20;99.90;;;;;;5068997;28;21017;-50
2023/05/11 11:47:15;;;;;;;9.67;7.10;;;15.30;99.90;;;;;;5058657;28;20207;-55
2023/05/11 11:49:44;;;;;;;8.57;7.07;;;15.40;99.90;;;;;;5073428;28;20236;-51
2023/05/11 11:52:12;;;;;;;7.93;6.77;;;15.40;99.90;;;;;;5058190;28;20236;-57
2023/05/11 11:54:39;;;;;;;9.87;7.40;;;15.60;99.90;;;;;;5083176;28;20626;-51
2023/05/11 11:57:42;;;;;;;11.20;7.73;;;15.80;99.90;;;;;;5073526;28;20221;-57
2023/05/11 12:00:11;;;;;;;10.77;7.30;;;16.10;99.90;;;;;;5066814;28;20641;-57
2023/05/11 12:02:42;;;;;;;11.83;7.50;;;16.20;99.90;;;;;;5060297;28;21491;-48
2023/05/11 12:05:12;;;;;;;10.23;7.37;;;16.20;99.90;;;;;;5061265;28;20665;-55
2023/05/11 12:07:42;;;;;;;10.97;7.63;;;16.10;99.90;;;;;;5061385;28;20285;-60
2023/05/11 12:10:12;;;;;;;12.57;7.90;;;16.00;99.90;;;;;;5061397;28;20416;-53
2023/05/11 12:12:40;;;;;;;13.03;7.17;;;16.00;99.90;;;;;;5070472;28;20219;-47
2023/05/11 12:15:08;;;;;;;10.30;7.53;;;16.00;99.90;;;;;;5076207;28;20220;-50
2023/05/11 12:17:38;;;;;;;9.93;7.63;;;16.10;99.90;;;;;;5079124;28;20198;-48
2023/05/11 12:20:15;;;;;;;10.33;7.37;;;16.30;99.90;;;;;;5089754;28;20218;-47
2023/05/11 12:22:43;;;;;;;11.40;7.40;;;16.60;99.90;;;;;;5067575;28;20186;-50
2023/05/11 12:25:11;;;;;;;9.53;7.13;;;16.70;99.90;;;;;;5060929;28;20198;-49
2023/05/11 12:27:48;;;;;;;9.20;7.43;;;17.00;99.90;;;;;;5079067;28;20277;-48
2023/05/11 12:30:23;;;;;;;13.93;7.43;;;17.00;99.90;;;;;;5085587;28;20214;-48
2023/05/11 12:32:51;;;;;;;8.87;7.03;;;16.90;99.90;;;;;;5073083;28;20221;-48
2023/05/11 12:35:24;;;;;;;9.50;7.73;;;17.00;99.90;;;;;;5073612;28;20202;-49
2023/05/11 12:37:52;;;;;;;10.67;7.83;;;17.00;99.90;;;;;;5074918;28;20191;-50
2023/05/11 12:40:19;;;;;;;10.23;7.80;;;16.90;99.90;;;;;;5059358;28;20217;-50
2023/05/11 12:42:52;;;;;;;10.77;7.93;;;17.00;99.90;;;;;;5077333;28;20202;-46
2023/05/11 12:45:21;;;;;;;8.33;7.37;;;17.00;99.90;;;;;;5082930;28;20234;-50
2023/05/11 12:47:49;;;;;;;11.30;8.17;;;17.00;99.90;;;;;;5074620;28;20281;-52
2023/05/11 12:50:18;;;;;;;8.80;7.43;;;17.00;99.90;;;;;;5071887;28;20229;-50